sensor_id;sensor_type;location;lat;lon;timestamp;P1;durP1;ratioP1;P2;durP2;ratioP2
11984;SDS011;6052;53.246;10.368;2023-07-29T00:01:10;3.67;;;2.88;;
11984;SDS011;6052;53.246;10.368;2023-07-29T00:03:43;4.40;;;2.70;;
11984;SDS011;6052;53.246;10.368;2023-07-29T00:06:12;2.80;;;2.47;;
11984;SDS011;6052;53.246;10.368;2023-07-29T00:08:42;3.80;;;2.92;;
11984;SDS011;6052;53.246;10.368;2023-07-29T00:11:11;2.80;;;2.60;;
11984;SDS011;6052;53.246;10.368;2023-07-29T00:13:40;3.38;;;2.70;;
11984;SDS011;6052;53.246;10.368;2023-07-29T00:16:10;3.30;;;2.70;;
11984;SDS011;6052;53.246;10.368;2023-07-29T00:18:44;6.32;;;2.80;;
11984;SDS011;6052;53.246;10.368;2023-07-29T00:21:14;3.78;;;2.45;;
11984;SDS011;6052;53.246;10.368;2023-07-29T00:23:43;3.05;;;2.60;;
11984;SDS011;6052;53.246;10.368;2023-07-29T00:26:14;5.03;;;2.58;;
11984;SDS011;6052;53.246;10.368;2023-07-29T00:28:43;3.13;;;2.75;;
11984;SDS011;6052;53.246;10.368;2023-07-29T00:31:12;4.03;;;2.67;;
11984;SDS011;6052;53.246;10.368;2023-07-29T00:33:44;4.53;;;2.70;;
11984;SDS011;6052;53.246;10.368;2023-07-29T00:36:14;2.95;;;2.58;;
11984;SDS011;6052;53.246;10.368;2023-07-29T00:38:43;3.22;;;2.67;;
11984;SDS011;6052;53.246;10.368;2023-07-29T00:41:13;3.17;;;2.63;;
11984;SDS011;6052;53.246;10.368;2023-07-29T00:43:43;2.95;;;2.45;;
11984;SDS011;6052;53.246;10.368;2023-07-29T00:46:12;3.45;;;2.72;;
11984;SDS011;6052;53.246;10.368;2023-07-29T00:48:45;3.15;;;2.75;;
11984;SDS011;6052;53.246;10.368;2023-07-29T00:51:14;3.78;;;2.65;;
11984;SDS011;6052;53.246;10.368;2023-07-29T00:53:44;3.70;;;2.80;;
11984;SDS011;6052;53.246;10.368;2023-07-29T00:56:13;4.82;;;2.75;;
11984;SDS011;6052;53.246;10.368;2023-07-29T00:58:43;3.63;;;2.88;;
11984;SDS011;6052;53.246;10.368;2023-07-29T01:01:13;3.75;;;2.80;;
11984;SDS011;6052;53.246;10.368;2023-07-29T01:03:45;3.75;;;2.50;;
11984;SDS011;6052;53.246;10.368;2023-07-29T01:06:16;3.55;;;2.85;;
11984;SDS011;6052;53.246;10.368;2023-07-29T01:08:55;2.67;;;2.28;;
11984;SDS011;6052;53.246;10.368;2023-07-29T01:11:33;4.28;;;2.50;;
11984;SDS011;6052;53.246;10.368;2023-07-29T01:14:10;3.65;;;3.05;;
11984;SDS011;6052;53.246;10.368;2023-07-29T01:16:50;4.32;;;2.95;;
11984;SDS011;6052;53.246;10.368;2023-07-29T01:19:31;3.30;;;2.75;;
11984;SDS011;6052;53.246;10.368;2023-07-29T01:22:11;3.83;;;2.85;;
11984;SDS011;6052;53.246;10.368;2023-07-29T01:24:49;4.03;;;2.90;;
11984;SDS011;6052;53.246;10.368;2023-07-29T01:27:18;3.92;;;2.90;;
11984;SDS011;6052;53.246;10.368;2023-07-29T01:29:48;3.17;;;2.67;;
11984;SDS011;6052;53.246;10.368;2023-07-29T01:32:19;4.18;;;2.78;;
11984;SDS011;6052;53.246;10.368;2023-07-29T01:34:57;3.50;;;2.67;;
11984;SDS011;6052;53.246;10.368;2023-07-29T01:37:32;5.10;;;2.60;;
11984;SDS011;6052;53.246;10.368;2023-07-29T01:40:06;2.75;;;2.55;;
11984;SDS011;6052;53.246;10.368;2023-07-29T01:42:37;3.10;;;2.80;;
11984;SDS011;6052;53.246;10.368;2023-07-29T01:45:09;4.72;;;2.47;;
11984;SDS011;6052;53.246;10.368;2023-07-29T01:47:42;3.80;;;2.47;;
11984;SDS011;6052;53.246;10.368;2023-07-29T01:50:11;3.05;;;2.70;;
11984;SDS011;6052;53.246;10.368;2023-07-29T01:52:41;4.38;;;3.45;;
11984;SDS011;6052;53.246;10.368;2023-07-29T01:55:13;4.82;;;2.72;;
11984;SDS011;6052;53.246;10.368;2023-07-29T01:57:42;3.45;;;2.90;;
11984;SDS011;6052;53.246;10.368;2023-07-29T02:00:12;3.70;;;2.88;;
11984;SDS011;6052;53.246;10.368;2023-07-29T02:02:42;3.75;;;3.25;;
11984;SDS011;6052;53.246;10.368;2023-07-29T02:05:11;3.10;;;2.80;;
11984;SDS011;6052;53.246;10.368;2023-07-29T02:07:41;3.70;;;3.10;;
11984;SDS011;6052;53.246;10.368;2023-07-29T02:10:13;3.85;;;3.05;;
11984;SDS011;6052;53.246;10.368;2023-07-29T02:12:44;3.70;;;2.90;;
11984;SDS011;6052;53.246;10.368;2023-07-29T02:15:13;3.63;;;2.78;;
11984;SDS011;6052;53.246;10.368;2023-07-29T02:17:43;5.82;;;3.65;;
11984;SDS011;6052;53.246;10.368;2023-07-29T02:20:12;4.15;;;3.13;;
11984;SDS011;6052;53.246;10.368;2023-07-29T02:22:42;3.65;;;2.90;;
11984;SDS011;6052;53.246;10.368;2023-07-29T02:25:14;5.18;;;3.35;;
11984;SDS011;6052;53.246;10.368;2023-07-29T02:27:44;3.38;;;3.00;;
11984;SDS011;6052;53.246;10.368;2023-07-29T02:30:15;4.53;;;3.20;;
11984;SDS011;6052;53.246;10.368;2023-07-29T02:32:45;3.72;;;3.10;;
11984;SDS011;6052;53.246;10.368;2023-07-29T02:35:15;4.00;;;2.95;;
11984;SDS011;6052;53.246;10.368;2023-07-29T02:37:44;3.85;;;3.20;;
11984;SDS011;6052;53.246;10.368;2023-07-29T02:40:16;4.93;;;3.17;;
11984;SDS011;6052;53.246;10.368;2023-07-29T02:42:47;5.68;;;3.30;;
11984;SDS011;6052;53.246;10.368;2023-07-29T02:45:16;4.85;;;3.40;;
11984;SDS011;6052;53.246;10.368;2023-07-29T02:47:46;3.97;;;3.58;;
11984;SDS011;6052;53.246;10.368;2023-07-29T02:50:15;5.88;;;3.70;;
11984;SDS011;6052;53.246;10.368;2023-07-29T02:52:45;5.07;;;3.28;;
11984;SDS011;6052;53.246;10.368;2023-07-29T02:55:19;3.80;;;3.25;;
11984;SDS011;6052;53.246;10.368;2023-07-29T02:57:48;4.90;;;3.55;;
11984;SDS011;6052;53.246;10.368;2023-07-29T03:00:18;4.63;;;3.20;;
11984;SDS011;6052;53.246;10.368;2023-07-29T03:02:47;3.92;;;3.20;;
11984;SDS011;6052;53.246;10.368;2023-07-29T03:05:17;3.92;;;3.35;;
11984;SDS011;6052;53.246;10.368;2023-07-29T03:07:46;3.70;;;2.88;;
11984;SDS011;6052;53.246;10.368;2023-07-29T03:10:18;3.95;;;3.20;;
11984;SDS011;6052;53.246;10.368;2023-07-29T03:12:48;4.22;;;3.40;;
11984;SDS011;6052;53.246;10.368;2023-07-29T03:15:18;5.50;;;3.90;;
11984;SDS011;6052;53.246;10.368;2023-07-29T03:17:47;5.47;;;3.80;;
11984;SDS011;6052;53.246;10.368;2023-07-29T03:20:17;5.43;;;4.07;;
11984;SDS011;6052;53.246;10.368;2023-07-29T03:22:46;4.38;;;3.42;;
11984;SDS011;6052;53.246;10.368;2023-07-29T03:25:18;5.70;;;3.60;;
11984;SDS011;6052;53.246;10.368;2023-07-29T03:27:48;8.32;;;3.47;;
11984;SDS011;6052;53.246;10.368;2023-07-29T03:30:19;4.53;;;3.30;;
11984;SDS011;6052;53.246;10.368;2023-07-29T03:32:49;4.75;;;3.40;;
11984;SDS011;6052;53.246;10.368;2023-07-29T03:35:19;4.55;;;3.90;;
11984;SDS011;6052;53.246;10.368;2023-07-29T03:37:48;9.80;;;3.80;;
11984;SDS011;6052;53.246;10.368;2023-07-29T03:40:20;6.10;;;4.43;;
11984;SDS011;6052;53.246;10.368;2023-07-29T03:42:50;4.82;;;3.30;;
11984;SDS011;6052;53.246;10.368;2023-07-29T03:45:19;5.10;;;3.80;;
11984;SDS011;6052;53.246;10.368;2023-07-29T03:47:48;7.18;;;4.15;;
11984;SDS011;6052;53.246;10.368;2023-07-29T03:50:18;7.10;;;3.63;;
11984;SDS011;6052;53.246;10.368;2023-07-29T03:52:47;4.47;;;3.67;;
11984;SDS011;6052;53.246;10.368;2023-07-29T03:55:17;7.28;;;4.15;;
11984;SDS011;6052;53.246;10.368;2023-07-29T03:57:50;9.13;;;3.78;;
11984;SDS011;6052;53.246;10.368;2023-07-29T04:00:19;5.40;;;3.97;;
11984;SDS011;6052;53.246;10.368;2023-07-29T04:02:48;6.35;;;4.07;;
11984;SDS011;6052;53.246;10.368;2023-07-29T04:05:18;6.32;;;3.33;;
11984;SDS011;6052;53.246;10.368;2023-07-29T04:07:48;6.20;;;3.72;;
11984;SDS011;6052;53.246;10.368;2023-07-29T04:10:17;9.15;;;4.07;;
11984;SDS011;6052;53.246;10.368;2023-07-29T04:12:49;4.53;;;3.70;;
11984;SDS011;6052;53.246;10.368;2023-07-29T04:15:18;7.18;;;4.25;;
11984;SDS011;6052;53.246;10.368;2023-07-29T04:17:48;4.78;;;3.97;;
11984;SDS011;6052;53.246;10.368;2023-07-29T04:20:17;5.80;;;4.15;;
11984;SDS011;6052;53.246;10.368;2023-07-29T04:22:47;4.43;;;3.90;;
11984;SDS011;6052;53.246;10.368;2023-07-29T04:25:16;5.80;;;4.03;;
11984;SDS011;6052;53.246;10.368;2023-07-29T04:27:45;5.13;;;4.07;;
11984;SDS011;6052;53.246;10.368;2023-07-29T04:30:17;4.68;;;4.03;;
11984;SDS011;6052;53.246;10.368;2023-07-29T04:32:47;5.75;;;4.38;;
11984;SDS011;6052;53.246;10.368;2023-07-29T04:35:17;6.90;;;4.80;;
11984;SDS011;6052;53.246;10.368;2023-07-29T04:37:46;6.38;;;4.97;;
11984;SDS011;6052;53.246;10.368;2023-07-29T04:40:16;5.53;;;4.30;;
11984;SDS011;6052;53.246;10.368;2023-07-29T04:42:45;6.68;;;4.50;;
11984;SDS011;6052;53.246;10.368;2023-07-29T04:45:17;5.15;;;4.03;;
11984;SDS011;6052;53.246;10.368;2023-07-29T04:47:47;10.25;;;4.47;;
11984;SDS011;6052;53.246;10.368;2023-07-29T04:50:16;6.57;;;4.65;;
11984;SDS011;6052;53.246;10.368;2023-07-29T04:52:46;5.65;;;4.28;;
11984;SDS011;6052;53.246;10.368;2023-07-29T04:55:15;5.68;;;4.07;;
11984;SDS011;6052;53.246;10.368;2023-07-29T04:57:45;7.03;;;4.63;;
11984;SDS011;6052;53.246;10.368;2023-07-29T05:00:14;8.23;;;5.35;;
11984;SDS011;6052;53.246;10.368;2023-07-29T05:02:47;6.65;;;5.07;;
11984;SDS011;6052;53.246;10.368;2023-07-29T05:05:18;7.90;;;5.35;;
11984;SDS011;6052;53.246;10.368;2023-07-29T05:07:47;6.20;;;5.13;;
11984;SDS011;6052;53.246;10.368;2023-07-29T05:10:16;8.27;;;5.10;;
11984;SDS011;6052;53.246;10.368;2023-07-29T05:12:46;7.03;;;5.20;;
11984;SDS011;6052;53.246;10.368;2023-07-29T05:15:16;8.80;;;5.50;;
11984;SDS011;6052;53.246;10.368;2023-07-29T05:17:48;7.88;;;5.82;;
11984;SDS011;6052;53.246;10.368;2023-07-29T05:20:17;6.97;;;5.20;;
11984;SDS011;6052;53.246;10.368;2023-07-29T05:22:47;8.80;;;6.03;;
11984;SDS011;6052;53.246;10.368;2023-07-29T05:25:16;6.95;;;5.00;;
11984;SDS011;6052;53.246;10.368;2023-07-29T05:27:45;9.48;;;6.45;;
11984;SDS011;6052;53.246;10.368;2023-07-29T05:30:15;8.40;;;6.00;;
11984;SDS011;6052;53.246;10.368;2023-07-29T05:32:45;7.93;;;6.03;;
11984;SDS011;6052;53.246;10.368;2023-07-29T05:35:17;8.48;;;6.13;;
11984;SDS011;6052;53.246;10.368;2023-07-29T05:37:46;8.02;;;5.88;;
11984;SDS011;6052;53.246;10.368;2023-07-29T05:40:16;8.73;;;6.30;;
11984;SDS011;6052;53.246;10.368;2023-07-29T05:42:46;8.35;;;6.15;;
11984;SDS011;6052;53.246;10.368;2023-07-29T05:45:15;7.45;;;5.90;;
11984;SDS011;6052;53.246;10.368;2023-07-29T05:47:44;8.25;;;5.45;;
11984;SDS011;6052;53.246;10.368;2023-07-29T05:50:16;9.32;;;5.60;;
11984;SDS011;6052;53.246;10.368;2023-07-29T05:52:46;7.63;;;5.90;;
11984;SDS011;6052;53.246;10.368;2023-07-29T05:55:16;7.93;;;5.68;;
11984;SDS011;6052;53.246;10.368;2023-07-29T05:57:45;8.50;;;6.45;;
11984;SDS011;6052;53.246;10.368;2023-07-29T06:00:15;7.38;;;5.47;;
11984;SDS011;6052;53.246;10.368;2023-07-29T06:02:47;5.95;;;5.28;;
11984;SDS011;6052;53.246;10.368;2023-07-29T06:05:17;8.02;;;5.43;;
11984;SDS011;6052;53.246;10.368;2023-07-29T06:07:46;6.63;;;4.75;;
11984;SDS011;6052;53.246;10.368;2023-07-29T06:10:16;6.72;;;5.18;;
11984;SDS011;6052;53.246;10.368;2023-07-29T06:12:46;6.30;;;5.13;;
11984;SDS011;6052;53.246;10.368;2023-07-29T06:15:15;10.48;;;5.32;;
11984;SDS011;6052;53.246;10.368;2023-07-29T06:17:50;8.77;;;5.55;;
11984;SDS011;6052;53.246;10.368;2023-07-29T06:20:22;9.27;;;5.65;;
11984;SDS011;6052;53.246;10.368;2023-07-29T06:22:52;7.10;;;5.40;;
11984;SDS011;6052;53.246;10.368;2023-07-29T06:25:21;7.15;;;5.30;;
11984;SDS011;6052;53.246;10.368;2023-07-29T06:27:51;7.10;;;5.45;;
11984;SDS011;6052;53.246;10.368;2023-07-29T06:30:20;7.22;;;5.22;;
11984;SDS011;6052;53.246;10.368;2023-07-29T06:32:52;8.00;;;5.45;;
11984;SDS011;6052;53.246;10.368;2023-07-29T06:35:22;7.03;;;5.50;;
11984;SDS011;6052;53.246;10.368;2023-07-29T06:37:51;6.15;;;4.60;;
11984;SDS011;6052;53.246;10.368;2023-07-29T06:40:21;6.10;;;4.32;;
11984;SDS011;6052;53.246;10.368;2023-07-29T06:42:50;6.57;;;4.63;;
11984;SDS011;6052;53.246;10.368;2023-07-29T06:45:20;4.78;;;3.97;;
11984;SDS011;6052;53.246;10.368;2023-07-29T06:47:49;5.47;;;3.88;;
11984;SDS011;6052;53.246;10.368;2023-07-29T06:50:22;6.28;;;3.90;;
11984;SDS011;6052;53.246;10.368;2023-07-29T06:52:53;5.55;;;3.85;;
11984;SDS011;6052;53.246;10.368;2023-07-29T06:55:23;4.00;;;3.10;;
11984;SDS011;6052;53.246;10.368;2023-07-29T06:57:52;4.80;;;3.65;;
11984;SDS011;6052;53.246;10.368;2023-07-29T07:00:22;5.13;;;3.25;;
11984;SDS011;6052;53.246;10.368;2023-07-29T07:02:51;4.53;;;3.20;;
11984;SDS011;6052;53.246;10.368;2023-07-29T07:05:23;4.50;;;3.50;;
11984;SDS011;6052;53.246;10.368;2023-07-29T07:07:52;3.95;;;2.95;;
11984;SDS011;6052;53.246;10.368;2023-07-29T07:10:22;3.30;;;2.40;;
11984;SDS011;6052;53.246;10.368;2023-07-29T07:12:51;3.30;;;2.60;;
11984;SDS011;6052;53.246;10.368;2023-07-29T07:15:21;6.20;;;2.90;;
11984;SDS011;6052;53.246;10.368;2023-07-29T07:17:50;3.33;;;2.65;;
11984;SDS011;6052;53.246;10.368;2023-07-29T07:20:23;2.47;;;2.28;;
11984;SDS011;6052;53.246;10.368;2023-07-29T07:22:52;2.90;;;2.30;;
11984;SDS011;6052;53.246;10.368;2023-07-29T07:25:22;3.15;;;2.33;;
11984;SDS011;6052;53.246;10.368;2023-07-29T07:27:51;2.97;;;2.33;;
11984;SDS011;6052;53.246;10.368;2023-07-29T07:30:33;2.47;;;1.98;;
11984;SDS011;6052;53.246;10.368;2023-07-29T07:33:03;4.40;;;2.22;;
11984;SDS011;6052;53.246;10.368;2023-07-29T07:35:35;3.28;;;2.15;;
11984;SDS011;6052;53.246;10.368;2023-07-29T07:38:04;3.33;;;2.22;;
11984;SDS011;6052;53.246;10.368;2023-07-29T07:40:36;2.10;;;1.90;;
11984;SDS011;6052;53.246;10.368;2023-07-29T07:43:05;3.22;;;2.15;;
11984;SDS011;6052;53.246;10.368;2023-07-29T07:45:35;2.28;;;2.03;;
11984;SDS011;6052;53.246;10.368;2023-07-29T07:48:05;2.30;;;2.10;;
11984;SDS011;6052;53.246;10.368;2023-07-29T07:50:39;2.33;;;1.75;;
11984;SDS011;6052;53.246;10.368;2023-07-29T07:53:08;2.15;;;1.90;;
11984;SDS011;6052;53.246;10.368;2023-07-29T07:55:39;2.10;;;1.90;;
11984;SDS011;6052;53.246;10.368;2023-07-29T07:58:08;2.30;;;2.10;;
11984;SDS011;6052;53.246;10.368;2023-07-29T08:00:38;2.63;;;1.75;;
11984;SDS011;6052;53.246;10.368;2023-07-29T08:03:07;2.35;;;2.15;;
11984;SDS011;6052;53.246;10.368;2023-07-29T08:05:39;2.10;;;1.90;;
11984;SDS011;6052;53.246;10.368;2023-07-29T08:08:09;2.53;;;2.33;;
11984;SDS011;6052;53.246;10.368;2023-07-29T08:10:38;3.03;;;2.60;;
11984;SDS011;6052;53.246;10.368;2023-07-29T08:13:07;2.75;;;2.13;;
11984;SDS011;6052;53.246;10.368;2023-07-29T08:15:37;2.70;;;2.50;;
11984;SDS011;6052;53.246;10.368;2023-07-29T08:18:07;2.80;;;2.58;;
11984;SDS011;6052;53.246;10.368;2023-07-29T08:20:39;2.90;;;2.60;;
11984;SDS011;6052;53.246;10.368;2023-07-29T08:23:08;2.70;;;2.50;;
11984;SDS011;6052;53.246;10.368;2023-07-29T08:25:38;3.05;;;2.75;;
11984;SDS011;6052;53.246;10.368;2023-07-29T08:28:07;2.80;;;2.60;;
11984;SDS011;6052;53.246;10.368;2023-07-29T08:30:37;3.25;;;2.75;;
11984;SDS011;6052;53.246;10.368;2023-07-29T08:33:07;3.25;;;2.63;;
11984;SDS011;6052;53.246;10.368;2023-07-29T08:35:39;4.20;;;2.92;;
11984;SDS011;6052;53.246;10.368;2023-07-29T08:38:08;3.20;;;2.83;;
11984;SDS011;6052;53.246;10.368;2023-07-29T08:40:40;3.85;;;2.80;;
11984;SDS011;6052;53.246;10.368;2023-07-29T08:43:11;2.75;;;2.50;;
11984;SDS011;6052;53.246;10.368;2023-07-29T08:45:45;3.13;;;2.83;;
11984;SDS011;6052;53.246;10.368;2023-07-29T08:48:15;3.20;;;2.90;;
11984;SDS011;6052;53.246;10.368;2023-07-29T08:50:55;3.53;;;3.20;;
11984;SDS011;6052;53.246;10.368;2023-07-29T08:53:25;4.38;;;3.75;;
11984;SDS011;6052;53.246;10.368;2023-07-29T08:55:56;4.78;;;3.60;;
11984;SDS011;6052;53.246;10.368;2023-07-29T08:58:27;4.93;;;4.32;;
11984;SDS011;6052;53.246;10.368;2023-07-29T09:00:56;4.60;;;4.00;;
11984;SDS011;6052;53.246;10.368;2023-07-29T09:03:26;5.57;;;4.50;;
11984;SDS011;6052;53.246;10.368;2023-07-29T09:05:59;6.05;;;4.35;;
11984;SDS011;6052;53.246;10.368;2023-07-29T09:08:31;6.35;;;4.47;;
11984;SDS011;6052;53.246;10.368;2023-07-29T09:11:02;5.80;;;5.00;;
11984;SDS011;6052;53.246;10.368;2023-07-29T09:13:32;6.20;;;4.90;;
11984;SDS011;6052;53.246;10.368;2023-07-29T09:16:02;8.70;;;5.05;;
11984;SDS011;6052;53.246;10.368;2023-07-29T09:18:33;8.32;;;4.68;;
11984;SDS011;6052;53.246;10.368;2023-07-29T09:21:06;10.35;;;4.82;;
11984;SDS011;6052;53.246;10.368;2023-07-29T09:23:39;8.48;;;5.00;;
11984;SDS011;6052;53.246;10.368;2023-07-29T09:26:09;4.85;;;3.00;;
11984;SDS011;6052;53.246;10.368;2023-07-29T09:28:40;3.28;;;2.53;;
11984;SDS011;6052;53.246;10.368;2023-07-29T09:31:16;2.85;;;2.13;;
11984;SDS011;6052;53.246;10.368;2023-07-29T09:33:48;2.22;;;1.70;;
11984;SDS011;6052;53.246;10.368;2023-07-29T09:36:20;2.00;;;1.80;;
11984;SDS011;6052;53.246;10.368;2023-07-29T09:38:52;2.83;;;1.77;;
11984;SDS011;6052;53.246;10.368;2023-07-29T09:41:23;2.30;;;1.60;;
11984;SDS011;6052;53.246;10.368;2023-07-29T09:43:56;2.53;;;1.90;;
11984;SDS011;6052;53.246;10.368;2023-07-29T09:46:32;3.38;;;1.92;;
11984;SDS011;6052;53.246;10.368;2023-07-29T09:49:03;2.60;;;2.00;;
11984;SDS011;6052;53.246;10.368;2023-07-29T09:51:39;3.47;;;2.30;;
11984;SDS011;6052;53.246;10.368;2023-07-29T09:54:10;4.15;;;2.42;;
11984;SDS011;6052;53.246;10.368;2023-07-29T09:56:42;3.75;;;3.13;;
11984;SDS011;6052;53.246;10.368;2023-07-29T09:59:12;3.72;;;3.10;;
11984;SDS011;6052;53.246;10.368;2023-07-29T10:01:42;5.25;;;3.80;;
11984;SDS011;6052;53.246;10.368;2023-07-29T10:04:12;6.05;;;3.63;;
11984;SDS011;6052;53.246;10.368;2023-07-29T10:06:46;5.13;;;4.05;;
11984;SDS011;6052;53.246;10.368;2023-07-29T10:09:16;5.90;;;4.78;;
11984;SDS011;6052;53.246;10.368;2023-07-29T10:11:47;6.85;;;5.68;;
11984;SDS011;6052;53.246;10.368;2023-07-29T10:14:17;7.07;;;4.97;;
11984;SDS011;6052;53.246;10.368;2023-07-29T10:16:47;8.52;;;6.43;;
11984;SDS011;6052;53.246;10.368;2023-07-29T10:19:18;8.57;;;6.25;;
11984;SDS011;6052;53.246;10.368;2023-07-29T10:21:52;8.05;;;6.43;;
11984;SDS011;6052;53.246;10.368;2023-07-29T10:24:26;8.95;;;6.50;;
11984;SDS011;6052;53.246;10.368;2023-07-29T10:27:00;10.82;;;6.97;;
11984;SDS011;6052;53.246;10.368;2023-07-29T10:29:31;10.23;;;6.22;;
11984;SDS011;6052;53.246;10.368;2023-07-29T10:32:06;9.35;;;6.90;;
11984;SDS011;6052;53.246;10.368;2023-07-29T10:34:37;8.40;;;6.55;;
11984;SDS011;6052;53.246;10.368;2023-07-29T10:37:11;8.45;;;6.82;;
11984;SDS011;6052;53.246;10.368;2023-07-29T10:39:41;9.20;;;6.93;;
11984;SDS011;6052;53.246;10.368;2023-07-29T10:42:21;9.10;;;6.93;;
11984;SDS011;6052;53.246;10.368;2023-07-29T10:44:51;9.38;;;7.30;;
11984;SDS011;6052;53.246;10.368;2023-07-29T10:47:22;9.35;;;7.07;;
11984;SDS011;6052;53.246;10.368;2023-07-29T10:49:54;9.75;;;6.82;;
11984;SDS011;6052;53.246;10.368;2023-07-29T10:52:40;8.70;;;6.80;;
11984;SDS011;6052;53.246;10.368;2023-07-29T10:55:22;9.75;;;6.82;;
11984;SDS011;6052;53.246;10.368;2023-07-29T11:00:41;10.02;;;7.07;;
11984;SDS011;6052;53.246;10.368;2023-07-29T11:03:12;9.35;;;6.95;;
11984;SDS011;6052;53.246;10.368;2023-07-29T11:05:44;8.10;;;6.55;;
11984;SDS011;6052;53.246;10.368;2023-07-29T11:08:21;7.93;;;5.85;;
11984;SDS011;6052;53.246;10.368;2023-07-29T11:11:03;8.20;;;6.70;;
11984;SDS011;6052;53.246;10.368;2023-07-29T11:13:34;7.80;;;6.40;;
11984;SDS011;6052;53.246;10.368;2023-07-29T11:16:05;8.70;;;6.65;;
11984;SDS011;6052;53.246;10.368;2023-07-29T11:18:35;9.55;;;6.47;;
11984;SDS011;6052;53.246;10.368;2023-07-29T11:21:06;9.52;;;6.78;;
11984;SDS011;6052;53.246;10.368;2023-07-29T11:23:38;7.90;;;6.35;;
11984;SDS011;6052;53.246;10.368;2023-07-29T11:26:07;7.43;;;6.32;;
11984;SDS011;6052;53.246;10.368;2023-07-29T11:28:39;7.55;;;6.25;;
11984;SDS011;6052;53.246;10.368;2023-07-29T11:31:09;7.40;;;5.93;;
11984;SDS011;6052;53.246;10.368;2023-07-29T11:33:39;7.28;;;5.80;;
11984;SDS011;6052;53.246;10.368;2023-07-29T11:36:17;9.20;;;6.15;;
11984;SDS011;6052;53.246;10.368;2023-07-29T11:38:50;6.43;;;5.50;;
11984;SDS011;6052;53.246;10.368;2023-07-29T11:41:19;6.65;;;5.53;;
11984;SDS011;6052;53.246;10.368;2023-07-29T11:43:49;7.80;;;5.97;;
11984;SDS011;6052;53.246;10.368;2023-07-29T11:46:22;6.75;;;5.70;;
11984;SDS011;6052;53.246;10.368;2023-07-29T11:48:53;6.65;;;4.80;;
11984;SDS011;6052;53.246;10.368;2023-07-29T11:51:23;9.32;;;5.72;;
11984;SDS011;6052;53.246;10.368;2023-07-29T11:53:57;5.72;;;5.00;;
11984;SDS011;6052;53.246;10.368;2023-07-29T11:56:26;7.47;;;5.05;;
11984;SDS011;6052;53.246;10.368;2023-07-29T11:58:56;6.10;;;4.80;;
11984;SDS011;6052;53.246;10.368;2023-07-29T12:01:26;5.18;;;4.40;;
11984;SDS011;6052;53.246;10.368;2023-07-29T12:03:56;3.97;;;3.58;;
11984;SDS011;6052;53.246;10.368;2023-07-29T12:06:26;4.85;;;3.95;;
11984;SDS011;6052;53.246;10.368;2023-07-29T12:09:00;7.15;;;4.20;;
11984;SDS011;6052;53.246;10.368;2023-07-29T12:11:30;4.43;;;3.63;;
11984;SDS011;6052;53.246;10.368;2023-07-29T12:14:00;4.70;;;3.80;;
11984;SDS011;6052;53.246;10.368;2023-07-29T12:16:29;3.63;;;3.33;;
11984;SDS011;6052;53.246;10.368;2023-07-29T12:19:02;3.53;;;3.22;;
11984;SDS011;6052;53.246;10.368;2023-07-29T12:21:31;3.50;;;3.20;;
11984;SDS011;6052;53.246;10.368;2023-07-29T12:24:04;3.72;;;3.17;;
11984;SDS011;6052;53.246;10.368;2023-07-29T12:26:35;2.92;;;2.67;;
11984;SDS011;6052;53.246;10.368;2023-07-29T12:29:11;3.20;;;2.90;;
11984;SDS011;6052;53.246;10.368;2023-07-29T12:31:41;3.10;;;2.67;;
11984;SDS011;6052;53.246;10.368;2023-07-29T12:34:16;3.78;;;2.60;;
11984;SDS011;6052;53.246;10.368;2023-07-29T12:36:47;3.33;;;3.03;;
11984;SDS011;6052;53.246;10.368;2023-07-29T12:39:21;4.28;;;2.90;;
11984;SDS011;6052;53.246;10.368;2023-07-29T12:41:53;3.10;;;2.80;;
11984;SDS011;6052;53.246;10.368;2023-07-29T12:44:24;2.70;;;2.47;;
11984;SDS011;6052;53.246;10.368;2023-07-29T12:46:54;3.53;;;2.72;;
11984;SDS011;6052;53.246;10.368;2023-07-29T12:49:23;2.58;;;2.22;;
11984;SDS011;6052;53.246;10.368;2023-07-29T12:51:55;2.85;;;2.35;;
11984;SDS011;6052;53.246;10.368;2023-07-29T12:54:27;2.65;;;2.33;;
11984;SDS011;6052;53.246;10.368;2023-07-29T12:56:56;3.38;;;2.20;;
11984;SDS011;6052;53.246;10.368;2023-07-29T12:59:25;2.75;;;2.28;;
11984;SDS011;6052;53.246;10.368;2023-07-29T13:01:55;2.58;;;2.20;;
11984;SDS011;6052;53.246;10.368;2023-07-29T13:04:24;2.17;;;1.98;;
11984;SDS011;6052;53.246;10.368;2023-07-29T13:06:53;3.83;;;2.30;;
11984;SDS011;6052;53.246;10.368;2023-07-29T13:09:28;3.28;;;2.00;;
11984;SDS011;6052;53.246;10.368;2023-07-29T13:11:57;6.70;;;2.70;;
11984;SDS011;6052;53.246;10.368;2023-07-29T13:14:27;2.70;;;2.17;;
11984;SDS011;6052;53.246;10.368;2023-07-29T13:16:56;2.63;;;2.35;;
11984;SDS011;6052;53.246;10.368;2023-07-29T13:19:26;3.33;;;2.13;;
11984;SDS011;6052;53.246;10.368;2023-07-29T13:21:55;1.83;;;1.70;;
11984;SDS011;6052;53.246;10.368;2023-07-29T13:24:24;2.03;;;1.70;;
11984;SDS011;6052;53.246;10.368;2023-07-29T13:26:56;3.65;;;1.75;;
11984;SDS011;6052;53.246;10.368;2023-07-29T13:29:26;1.70;;;1.60;;
11984;SDS011;6052;53.246;10.368;2023-07-29T13:31:55;3.42;;;1.60;;
11984;SDS011;6052;53.246;10.368;2023-07-29T13:34:25;1.80;;;1.70;;
11984;SDS011;6052;53.246;10.368;2023-07-29T13:36:54;2.72;;;1.90;;
11984;SDS011;6052;53.246;10.368;2023-07-29T13:39:23;1.95;;;1.80;;
11984;SDS011;6052;53.246;10.368;2023-07-29T13:41:53;2.15;;;1.60;;
11984;SDS011;6052;53.246;10.368;2023-07-29T13:44:25;2.00;;;1.80;;
11984;SDS011;6052;53.246;10.368;2023-07-29T13:46:55;1.48;;;1.25;;
11984;SDS011;6052;53.246;10.368;2023-07-29T13:49:24;1.98;;;1.77;;
11984;SDS011;6052;53.246;10.368;2023-07-29T13:51:53;1.50;;;1.40;;
11984;SDS011;6052;53.246;10.368;2023-07-29T13:54:23;2.25;;;1.42;;
11984;SDS011;6052;53.246;10.368;2023-07-29T13:56:55;1.70;;;1.40;;
11984;SDS011;6052;53.246;10.368;2023-07-29T13:59:27;2.58;;;1.67;;
11984;SDS011;6052;53.246;10.368;2023-07-29T14:01:56;1.25;;;1.15;;
11984;SDS011;6052;53.246;10.368;2023-07-29T14:04:25;1.45;;;1.20;;
11984;SDS011;6052;53.246;10.368;2023-07-29T14:06:56;1.80;;;1.33;;
11984;SDS011;6052;53.246;10.368;2023-07-29T14:09:25;1.52;;;1.25;;
11984;SDS011;6052;53.246;10.368;2023-07-29T14:11:55;1.30;;;1.20;;
11984;SDS011;6052;53.246;10.368;2023-07-29T14:14:27;1.67;;;1.13;;
11984;SDS011;6052;53.246;10.368;2023-07-29T14:16:57;1.40;;;1.30;;
11984;SDS011;6052;53.246;10.368;2023-07-29T14:19:26;1.63;;;1.40;;
11984;SDS011;6052;53.246;10.368;2023-07-29T14:21:55;1.70;;;1.60;;
11984;SDS011;6052;53.246;10.368;2023-07-29T14:24:25;1.50;;;1.30;;
11984;SDS011;6052;53.246;10.368;2023-07-29T14:26:54;1.30;;;1.13;;
11984;SDS011;6052;53.246;10.368;2023-07-29T14:29:23;3.60;;;1.38;;
11984;SDS011;6052;53.246;10.368;2023-07-29T14:31:55;2.42;;;1.45;;
11984;SDS011;6052;53.246;10.368;2023-07-29T14:34:25;1.65;;;1.55;;
11984;SDS011;6052;53.246;10.368;2023-07-29T14:36:55;1.70;;;1.45;;
11984;SDS011;6052;53.246;10.368;2023-07-29T14:39:25;2.08;;;1.50;;
11984;SDS011;6052;53.246;10.368;2023-07-29T14:41:54;1.73;;;1.20;;
11984;SDS011;6052;53.246;10.368;2023-07-29T14:44:23;1.50;;;1.40;;
11984;SDS011;6052;53.246;10.368;2023-07-29T14:46:55;1.35;;;1.25;;
11984;SDS011;6052;53.246;10.368;2023-07-29T14:49:25;1.80;;;1.48;;
11984;SDS011;6052;53.246;10.368;2023-07-29T14:51:54;1.90;;;1.50;;
11984;SDS011;6052;53.246;10.368;2023-07-29T14:54:23;1.40;;;1.30;;
11984;SDS011;6052;53.246;10.368;2023-07-29T14:56:53;1.80;;;1.50;;
11984;SDS011;6052;53.246;10.368;2023-07-29T14:59:23;1.40;;;1.30;;
11984;SDS011;6052;53.246;10.368;2023-07-29T15:01:52;1.27;;;1.17;;
11984;SDS011;6052;53.246;10.368;2023-07-29T15:04:24;1.85;;;1.10;;
11984;SDS011;6052;53.246;10.368;2023-07-29T15:06:54;1.13;;;1.00;;
11984;SDS011;6052;53.246;10.368;2023-07-29T15:09:24;2.15;;;1.38;;
11984;SDS011;6052;53.246;10.368;2023-07-29T15:11:53;0.90;;;0.90;;